Ennis, Ireland
Current Conditions -  °F | °C
As of 1:30 PM on Monday 20 Oct 2014 (Local Time) from EINN Reporting Station
Broken Clouds Broken Clouds  
Wind Chill: 59°   Ceiling: 2500
Heat Index: 59°   Visibility: 6mi
Dew Point: 52°   Wind: 17mph
Humidity: 77%   Direction: 220°SW
Pressure: 29.83"   Gusts: NA
Location:  52.86°N, 8.99°W
Report Text: EINN 201330Z 22015KT 9999 FEW016 SCT019 BKN025 15/11 Q1010 NOSIG
Loading
Personal Weather Stations






























Interactive Weather Map New forecast layout! Learn more

10-Day Weather Forecast

Advertisements
Track Severe Weather on mobile